Estación de Imperial Alto

Ultimos registro cada 15 minutos 78
Estación Fecha / Hora Temperatura Humedad Lluvia Velocidad Dirección Radiación Presion
78 Imperial Alto 09-05-2026 19:45 12,3 80 0 0 4 0 1012,3
77 Imperial Alto 09-05-2026 19:30 12,4 80 0 0 4 0 1012,3
76 Imperial Alto 09-05-2026 19:15 12,3 81 0 0 4 0 1012,3
75 Imperial Alto 09-05-2026 19:00 12,4 80 0 2,2 356 0 1012,1
74 Imperial Alto 09-05-2026 18:45 12,8 79 0 1,8 4 0 1012,1
73 Imperial Alto 09-05-2026 18:30 13,3 78 0 0 7 0 1011,9
72 Imperial Alto 09-05-2026 18:15 14,2 75 0 1,8 19 0 1011,7
71 Imperial Alto 09-05-2026 18:00 15,1 73 0 1,3 4 7 1011,5
70 Imperial Alto 09-05-2026 17:45 16,3 70 0 1,3 321 25 1011,3
69 Imperial Alto 09-05-2026 17:30 17,4 67 0 1,3 322 58 1011,2
68 Imperial Alto 09-05-2026 17:15 18,5 64 0 1,3 242 105 1011,2
67 Imperial Alto 09-05-2026 17:00 19,1 63 0 0,9 285 155 1011
66 Imperial Alto 09-05-2026 16:30 19,3 63 0 0 343 232 1011,1
65 Imperial Alto 09-05-2026 16:15 19,3 62 0 1,3 298 278 1011,2
64 Imperial Alto 09-05-2026 16:00 19,2 64 0 0,4 304 318 1011,3
63 Imperial Alto 09-05-2026 15:45 18,6 66 0 0,9 283 399 1011,6
62 Imperial Alto 09-05-2026 15:30 18,6 66 0 0,9 283 399 1011,6
61 Imperial Alto 09-05-2026 15:15 18,7 65 0 1,3 330 434 1011,8
60 Imperial Alto 09-05-2026 15:00 18,3 67 0 0,4 47 468 1011,9
59 Imperial Alto 09-05-2026 14:45 17,5 70 0 0 248 527 1012,3
58 Imperial Alto 09-05-2026 14:30 17,5 70 0 0 248 527 1012,3
57 Imperial Alto 09-05-2026 14:15 16,7 72 0 0,4 328 548 1012,5
56 Imperial Alto 09-05-2026 14:00 16,3 73 0 0,9 297 570 1012,5
55 Imperial Alto 09-05-2026 13:45 15,7 76 0 1,3 292 599 1013
54 Imperial Alto 09-05-2026 13:30 15,7 76 0 1,3 292 599 1013
53 Imperial Alto 09-05-2026 13:15 14,9 77 0 0 355 617 1013,2
52 Imperial Alto 09-05-2026 13:00 14,7 77 0 1,3 355 587 1013,4
51 Imperial Alto 09-05-2026 12:45 14,1 78 0 0 294 272 1013,6
50 Imperial Alto 09-05-2026 12:30 14,1 78 0 0 294 272 1013,6
49 Imperial Alto 09-05-2026 12:15 13,8 80 0 0 291 464 1013,6
48 Imperial Alto 09-05-2026 12:00 13,2 82 0 0 240 388 1013,7
47 Imperial Alto 09-05-2026 11:45 12,3 85 0 0 338 264 1014,1
46 Imperial Alto 09-05-2026 11:30 12,3 85 0 0 338 264 1014,1
45 Imperial Alto 09-05-2026 11:15 11,8 86 0 0 290 211 1014
44 Imperial Alto 09-05-2026 11:00 11,6 86 0 0,9 171 188 1014,2
43 Imperial Alto 09-05-2026 10:45 11,1 88 0 0 8 167 1014,5
42 Imperial Alto 09-05-2026 10:30 11,1 88 0 0 8 167 1014,5
41 Imperial Alto 09-05-2026 10:15 10,9 90 0 0 220 134 1014,6
40 Imperial Alto 09-05-2026 10:00 10,6 91 0 0 217 130 1014,6
39 Imperial Alto 09-05-2026 09:45 10,3 91 0 0 182 111 1014,7
38 Imperial Alto 09-05-2026 09:30 10,2 91 0 0 122 88 1014,7
37 Imperial Alto 09-05-2026 09:15 10 92 0 0 117 69 1014,8
36 Imperial Alto 09-05-2026 09:00 9,9 91 0 0,9 8 63 1014,6
35 Imperial Alto 09-05-2026 08:45 9,9 92 0 0 302 30 1014,2
34 Imperial Alto 09-05-2026 08:30 9,9 92 0 0 302 30 1014,2
33 Imperial Alto 09-05-2026 08:15 9,8 92 0 0,4 262 21 1014,1
32 Imperial Alto 09-05-2026 08:00 9,8 92 0 0 9 18 1014,1
31 Imperial Alto 09-05-2026 07:45 9,6 91 0 0 360 12 1013,8
30 Imperial Alto 09-05-2026 07:30 9,7 91 0 0 338 5 1013,6
29 Imperial Alto 09-05-2026 07:15 9,6 91 0 0 348 0 1013,3
28 Imperial Alto 09-05-2026 07:00 9,7 91 0 1,3 13 0 1013
27 Imperial Alto 09-05-2026 06:45 9,9 91 0 0 84 0 1012,5
26 Imperial Alto 09-05-2026 06:30 9,9 91 0 0 84 0 1012,5
25 Imperial Alto 09-05-2026 06:15 9,9 91 0 0,9 27 0 1012,4
24 Imperial Alto 09-05-2026 06:00 9,9 91 0 0 347 0 1012,3
23 Imperial Alto 09-05-2026 05:45 9,9 91 0 0 352 0 1012,1
22 Imperial Alto 09-05-2026 05:30 9,8 91 0 0 22 0 1012
21 Imperial Alto 09-05-2026 05:15 9,7 91 0 0 137 0 1011,8
20 Imperial Alto 09-05-2026 05:00 9,7 91 0 0 37 0 1011,9
19 Imperial Alto 09-05-2026 04:45 9,7 91 0 0 59 0 1011,9
18 Imperial Alto 09-05-2026 04:30 9,7 91 0 0 59 0 1011,9
17 Imperial Alto 09-05-2026 04:15 9,7 91 0 0 124 0 1012
16 Imperial Alto 09-05-2026 04:00 9,6 90 0 0 105 0 1012
15 Imperial Alto 09-05-2026 03:45 9,8 90 0 1,8 153 0 1011,9
14 Imperial Alto 09-05-2026 03:30 9,8 90 0 1,8 153 0 1011,9
13 Imperial Alto 09-05-2026 03:15 9,9 90 0 0 85 0 1012
12 Imperial Alto 09-05-2026 03:00 9,9 90 0 0 8 0 1012,2
11 Imperial Alto 09-05-2026 02:45 9,8 89 0 0 1 0 1012,2
10 Imperial Alto 09-05-2026 02:30 9,8 89 0 0 1 0 1012,2
9 Imperial Alto 09-05-2026 02:15 9,6 87 0 0 1 0 1012,1
8 Imperial Alto 09-05-2026 02:00 9,4 83 0 0 316 0 1012,2
7 Imperial Alto 09-05-2026 01:45 10,2 79 0 0 316 0 1012,1
6 Imperial Alto 09-05-2026 01:30 10,2 79 0 0 316 0 1012,1
5 Imperial Alto 09-05-2026 01:15 10,5 78 0 0 4 0 1012,2
4 Imperial Alto 09-05-2026 01:00 10,9 78 0 0 4 0 1012,1
3 Imperial Alto 09-05-2026 00:30 11,3 75 0 0 25 0 1012,2
2 Imperial Alto 09-05-2026 00:15 11,5 76 0 0 35 0 1012
1 Imperial Alto 09-05-2026 00:00 11,6 75 0 0 37 0 1011,9